sensor_id;sensor_type;location;lat;lon;timestamp;P1;durP1;ratioP1;P2;durP2;ratioP2
69334;SDS011;56477;52.742;15.242;2023-09-08T13:48:28;8.10;;;5.45;;
69334;SDS011;56477;52.742;15.242;2023-09-08T13:50:54;8.65;;;5.50;;
69334;SDS011;56477;52.742;15.242;2023-09-08T13:53:21;7.93;;;5.40;;
69334;SDS011;56477;52.742;15.242;2023-09-08T13:55:47;8.52;;;5.50;;
69334;SDS011;56477;52.742;15.242;2023-09-08T13:58:13;6.88;;;5.00;;
69334;SDS011;56477;52.742;15.242;2023-09-08T14:00:40;7.43;;;5.27;;
69334;SDS011;56477;52.742;15.242;2023-09-08T14:03:05;6.90;;;5.50;;
69334;SDS011;56477;52.742;15.242;2023-09-08T14:05:32;7.70;;;4.90;;
69334;SDS011;56477;52.742;15.242;2023-09-08T14:07:57;7.65;;;5.50;;
69334;SDS011;56477;52.742;15.242;2023-09-08T14:10:24;9.60;;;5.87;;
69334;SDS011;56477;52.742;15.242;2023-09-08T14:12:49;6.30;;;5.27;;
69334;SDS011;56477;52.742;15.242;2023-09-08T14:15:15;8.40;;;5.25;;
69334;SDS011;56477;52.742;15.242;2023-09-08T14:17:41;7.30;;;5.45;;
69334;SDS011;56477;52.742;15.242;2023-09-08T14:20:08;7.07;;;6.03;;
69334;SDS011;56477;52.742;15.242;2023-09-08T14:22:34;9.73;;;5.50;;
69334;SDS011;56477;52.742;15.242;2023-09-08T14:25:00;7.47;;;5.70;;
69334;SDS011;56477;52.742;15.242;2023-09-08T14:27:26;8.65;;;5.85;;
69334;SDS011;56477;52.742;15.242;2023-09-08T14:29:52;7.68;;;5.30;;
69334;SDS011;56477;52.742;15.242;2023-09-08T14:32:20;7.25;;;5.18;;
69334;SDS011;56477;52.742;15.242;2023-09-08T14:34:46;9.40;;;5.72;;
69334;SDS011;56477;52.742;15.242;2023-09-08T14:37:11;7.83;;;5.20;;
69334;SDS011;56477;52.742;15.242;2023-09-08T14:39:38;7.80;;;5.53;;
69334;SDS011;56477;52.742;15.242;2023-09-08T14:42:03;6.95;;;5.70;;
69334;SDS011;56477;52.742;15.242;2023-09-08T14:44:31;7.78;;;5.88;;
69334;SDS011;56477;52.742;15.242;2023-09-08T14:46:56;8.33;;;5.80;;
69334;SDS011;56477;52.742;15.242;2023-09-08T14:49:22;7.65;;;5.88;;
69334;SDS011;56477;52.742;15.242;2023-09-08T14:51:48;7.90;;;5.25;;
69334;SDS011;56477;52.742;15.242;2023-09-08T14:54:14;6.63;;;5.27;;
69334;SDS011;56477;52.742;15.242;2023-09-08T14:56:40;7.45;;;5.38;;
69334;SDS011;56477;52.742;15.242;2023-09-08T14:59:07;7.60;;;5.57;;
69334;SDS011;56477;52.742;15.242;2023-09-08T15:01:33;8.32;;;5.85;;
69334;SDS011;56477;52.742;15.242;2023-09-08T15:04:00;7.47;;;5.63;;
69334;SDS011;56477;52.742;15.242;2023-09-08T15:06:25;6.00;;;5.10;;
69334;SDS011;56477;52.742;15.242;2023-09-08T15:08:51;7.68;;;6.03;;
69334;SDS011;56477;52.742;15.242;2023-09-08T15:11:17;7.43;;;5.47;;
69334;SDS011;56477;52.742;15.242;2023-09-08T15:13:43;7.10;;;5.47;;
69334;SDS011;56477;52.742;15.242;2023-09-08T15:16:09;7.05;;;5.75;;
69334;SDS011;56477;52.742;15.242;2023-09-08T15:18:35;6.68;;;5.45;;
69334;SDS011;56477;52.742;15.242;2023-09-08T15:21:01;6.30;;;5.05;;
69334;SDS011;56477;52.742;15.242;2023-09-08T15:23:27;6.57;;;5.60;;
69334;SDS011;56477;52.742;15.242;2023-09-08T15:25:54;6.22;;;5.20;;
69334;SDS011;56477;52.742;15.242;2023-09-08T15:28:21;7.30;;;5.80;;
69334;SDS011;56477;52.742;15.242;2023-09-08T15:30:48;7.72;;;5.85;;
69334;SDS011;56477;52.742;15.242;2023-09-08T15:33:18;10.00;;;5.40;;
69334;SDS011;56477;52.742;15.242;2023-09-08T15:35:45;7.77;;;5.73;;
69334;SDS011;56477;52.742;15.242;2023-09-08T15:38:12;7.93;;;5.35;;
69334;SDS011;56477;52.742;15.242;2023-09-08T15:40:38;8.90;;;5.80;;
69334;SDS011;56477;52.742;15.242;2023-09-08T15:43:20;11.18;;;5.10;;
69334;SDS011;56477;52.742;15.242;2023-09-08T15:45:45;6.83;;;5.43;;
69334;SDS011;56477;52.742;15.242;2023-09-08T15:48:11;7.53;;;5.65;;
69334;SDS011;56477;52.742;15.242;2023-09-08T15:50:37;11.50;;;6.70;;
69334;SDS011;56477;52.742;15.242;2023-09-08T15:53:03;7.28;;;4.78;;
69334;SDS011;56477;52.742;15.242;2023-09-08T15:55:29;7.90;;;5.40;;
69334;SDS011;56477;52.742;15.242;2023-09-08T15:57:59;10.70;;;5.50;;
69334;SDS011;56477;52.742;15.242;2023-09-08T16:00:24;7.60;;;4.80;;
69334;SDS011;56477;52.742;15.242;2023-09-08T16:02:51;10.13;;;5.68;;
69334;SDS011;56477;52.742;15.242;2023-09-08T16:05:17;8.20;;;5.35;;
69334;SDS011;56477;52.742;15.242;2023-09-08T16:07:43;7.18;;;5.45;;
69334;SDS011;56477;52.742;15.242;2023-09-08T16:10:11;6.37;;;5.60;;
69334;SDS011;56477;52.742;15.242;2023-09-08T16:12:37;9.57;;;5.25;;
69334;SDS011;56477;52.742;15.242;2023-09-08T16:15:02;8.55;;;5.47;;
69334;SDS011;56477;52.742;15.242;2023-09-08T16:17:29;7.60;;;5.68;;
69334;SDS011;56477;52.742;15.242;2023-09-08T16:19:55;8.47;;;5.93;;
69334;SDS011;56477;52.742;15.242;2023-09-08T16:22:21;8.05;;;5.15;;
69334;SDS011;56477;52.742;15.242;2023-09-08T16:24:47;8.07;;;5.10;;
69334;SDS011;56477;52.742;15.242;2023-09-08T16:27:13;8.73;;;5.10;;
69334;SDS011;56477;52.742;15.242;2023-09-08T16:29:39;8.95;;;5.45;;
69334;SDS011;56477;52.742;15.242;2023-09-08T16:32:05;8.50;;;5.95;;
69334;SDS011;56477;52.742;15.242;2023-09-08T16:34:32;9.98;;;6.28;;
69334;SDS011;56477;52.742;15.242;2023-09-08T16:36:57;13.57;;;6.37;;
69334;SDS011;56477;52.742;15.242;2023-09-08T16:39:23;9.95;;;6.88;;
69334;SDS011;56477;52.742;15.242;2023-09-08T16:41:49;13.85;;;8.15;;
69334;SDS011;56477;52.742;15.242;2023-09-08T16:44:15;13.30;;;7.85;;
69334;SDS011;56477;52.742;15.242;2023-09-08T16:46:41;12.03;;;7.80;;
69334;SDS011;56477;52.742;15.242;2023-09-08T16:49:07;14.25;;;7.70;;
69334;SDS011;56477;52.742;15.242;2023-09-08T16:51:33;13.27;;;7.03;;
69334;SDS011;56477;52.742;15.242;2023-09-08T16:53:59;10.93;;;7.13;;
69334;SDS011;56477;52.742;15.242;2023-09-08T16:56:25;12.07;;;6.30;;
69334;SDS011;56477;52.742;15.242;2023-09-08T16:58:52;11.02;;;7.43;;
69334;SDS011;56477;52.742;15.242;2023-09-08T17:01:17;10.65;;;5.95;;
69334;SDS011;56477;52.742;15.242;2023-09-08T17:03:44;11.60;;;5.83;;
69334;SDS011;56477;52.742;15.242;2023-09-08T17:06:09;11.27;;;5.50;;
69334;SDS011;56477;52.742;15.242;2023-09-08T17:08:36;10.05;;;5.85;;
69334;SDS011;56477;52.742;15.242;2023-09-08T17:11:03;8.20;;;5.53;;
69334;SDS011;56477;52.742;15.242;2023-09-08T17:13:30;8.93;;;5.20;;
69334;SDS011;56477;52.742;15.242;2023-09-08T17:15:57;8.80;;;4.95;;
69334;SDS011;56477;52.742;15.242;2023-09-08T17:18:23;8.63;;;5.38;;
69334;SDS011;56477;52.742;15.242;2023-09-08T17:20:54;9.45;;;5.65;;
69334;SDS011;56477;52.742;15.242;2023-09-08T17:23:24;10.07;;;5.67;;
69334;SDS011;56477;52.742;15.242;2023-09-08T17:25:50;9.90;;;5.70;;
69334;SDS011;56477;52.742;15.242;2023-09-08T17:28:17;8.65;;;5.78;;
69334;SDS011;56477;52.742;15.242;2023-09-08T17:30:43;10.10;;;5.75;;
69334;SDS011;56477;52.742;15.242;2023-09-08T17:33:10;9.05;;;5.57;;
69334;SDS011;56477;52.742;15.242;2023-09-08T17:35:36;11.33;;;5.63;;
69334;SDS011;56477;52.742;15.242;2023-09-08T17:38:02;11.25;;;5.50;;
69334;SDS011;56477;52.742;15.242;2023-09-08T17:40:28;10.55;;;5.57;;
69334;SDS011;56477;52.742;15.242;2023-09-08T17:42:54;10.88;;;5.60;;
69334;SDS011;56477;52.742;15.242;2023-09-08T17:45:21;7.80;;;5.27;;
69334;SDS011;56477;52.742;15.242;2023-09-08T17:47:47;10.30;;;6.78;;
69334;SDS011;56477;52.742;15.242;2023-09-08T17:50:12;17.77;;;9.43;;
69334;SDS011;56477;52.742;15.242;2023-09-08T17:52:40;12.18;;;6.90;;
69334;SDS011;56477;52.742;15.242;2023-09-08T17:55:07;9.37;;;5.13;;
69334;SDS011;56477;52.742;15.242;2023-09-08T17:57:36;11.10;;;5.40;;
69334;SDS011;56477;52.742;15.242;2023-09-08T18:00:02;13.60;;;5.90;;
69334;SDS011;56477;52.742;15.242;2023-09-08T18:02:33;11.20;;;5.90;;
69334;SDS011;56477;52.742;15.242;2023-09-08T18:04:59;9.00;;;5.25;;
69334;SDS011;56477;52.742;15.242;2023-09-08T18:07:25;8.70;;;5.18;;
69334;SDS011;56477;52.742;15.242;2023-09-08T18:09:52;9.50;;;5.93;;
69334;SDS011;56477;52.742;15.242;2023-09-08T18:12:18;9.63;;;5.47;;
69334;SDS011;56477;52.742;15.242;2023-09-08T18:14:44;9.32;;;5.32;;
69334;SDS011;56477;52.742;15.242;2023-09-08T18:17:10;10.13;;;5.80;;
69334;SDS011;56477;52.742;15.242;2023-09-08T18:19:36;7.10;;;4.97;;
69334;SDS011;56477;52.742;15.242;2023-09-08T18:22:03;13.10;;;5.20;;
69334;SDS011;56477;52.742;15.242;2023-09-08T18:24:29;10.07;;;4.93;;
69334;SDS011;56477;52.742;15.242;2023-09-08T18:26:56;8.98;;;5.20;;
69334;SDS011;56477;52.742;15.242;2023-09-08T18:29:22;8.97;;;5.40;;
69334;SDS011;56477;52.742;15.242;2023-09-08T18:31:48;7.63;;;4.65;;
69334;SDS011;56477;52.742;15.242;2023-09-08T18:34:13;10.80;;;5.45;;
69334;SDS011;56477;52.742;15.242;2023-09-08T18:36:40;8.70;;;5.47;;
69334;SDS011;56477;52.742;15.242;2023-09-08T18:39:06;8.97;;;5.63;;
69334;SDS011;56477;52.742;15.242;2023-09-08T18:41:32;8.75;;;5.30;;
69334;SDS011;56477;52.742;15.242;2023-09-08T18:43:57;11.68;;;5.18;;
69334;SDS011;56477;52.742;15.242;2023-09-08T18:46:24;9.02;;;5.75;;
69334;SDS011;56477;52.742;15.242;2023-09-08T18:48:49;9.23;;;5.40;;
69334;SDS011;56477;52.742;15.242;2023-09-08T18:51:16;8.18;;;5.97;;
69334;SDS011;56477;52.742;15.242;2023-09-08T18:53:42;8.98;;;5.50;;
69334;SDS011;56477;52.742;15.242;2023-09-08T18:56:08;14.07;;;5.05;;
69334;SDS011;56477;52.742;15.242;2023-09-08T18:58:34;11.97;;;5.37;;
69334;SDS011;56477;52.742;15.242;2023-09-08T19:01:03;10.50;;;5.68;;
69334;SDS011;56477;52.742;15.242;2023-09-08T19:03:30;12.20;;;5.25;;
69334;SDS011;56477;52.742;15.242;2023-09-08T19:05:56;8.63;;;5.30;;
69334;SDS011;56477;52.742;15.242;2023-09-08T19:08:22;8.40;;;5.53;;
69334;SDS011;56477;52.742;15.242;2023-09-08T19:10:48;10.95;;;5.45;;
69334;SDS011;56477;52.742;15.242;2023-09-08T19:13:14;9.68;;;5.32;;
69334;SDS011;56477;52.742;15.242;2023-09-08T19:15:40;8.95;;;5.38;;
69334;SDS011;56477;52.742;15.242;2023-09-08T19:18:06;13.63;;;5.13;;
69334;SDS011;56477;52.742;15.242;2023-09-08T19:20:32;8.00;;;5.20;;
69334;SDS011;56477;52.742;15.242;2023-09-08T19:22:58;10.00;;;5.43;;
69334;SDS011;56477;52.742;15.242;2023-09-08T19:25:24;10.75;;;5.35;;
69334;SDS011;56477;52.742;15.242;2023-09-08T19:27:50;8.37;;;5.13;;
69334;SDS011;56477;52.742;15.242;2023-09-08T19:30:16;8.73;;;5.20;;
69334;SDS011;56477;52.742;15.242;2023-09-08T19:32:42;8.45;;;4.90;;
69334;SDS011;56477;52.742;15.242;2023-09-08T19:35:09;9.95;;;5.47;;
69334;SDS011;56477;52.742;15.242;2023-09-08T19:37:36;8.07;;;5.10;;
69334;SDS011;56477;52.742;15.242;2023-09-08T19:40:04;8.95;;;5.30;;
69334;SDS011;56477;52.742;15.242;2023-09-08T19:42:31;9.18;;;5.10;;
69334;SDS011;56477;52.742;15.242;2023-09-08T19:44:57;7.88;;;4.88;;
69334;SDS011;56477;52.742;15.242;2023-09-08T19:47:23;12.15;;;7.38;;
69334;SDS011;56477;52.742;15.242;2023-09-08T19:49:50;10.63;;;5.00;;
69334;SDS011;56477;52.742;15.242;2023-09-08T19:52:15;10.45;;;5.20;;
69334;SDS011;56477;52.742;15.242;2023-09-08T19:54:45;9.80;;;5.95;;
69334;SDS011;56477;52.742;15.242;2023-09-08T19:57:10;10.77;;;6.20;;
69334;SDS011;56477;52.742;15.242;2023-09-08T19:59:37;12.55;;;5.43;;
69334;SDS011;56477;52.742;15.242;2023-09-08T20:02:07;9.45;;;5.20;;
69334;SDS011;56477;52.742;15.242;2023-09-08T20:04:34;9.68;;;5.22;;
69334;SDS011;56477;52.742;15.242;2023-09-08T20:07:00;10.70;;;5.00;;
69334;SDS011;56477;52.742;15.242;2023-09-08T20:09:28;9.35;;;5.10;;
69334;SDS011;56477;52.742;15.242;2023-09-08T20:11:54;9.88;;;5.47;;
69334;SDS011;56477;52.742;15.242;2023-09-08T20:14:20;9.93;;;5.53;;
69334;SDS011;56477;52.742;15.242;2023-09-08T20:16:46;9.13;;;5.30;;
69334;SDS011;56477;52.742;15.242;2023-09-08T20:19:12;11.02;;;5.45;;
69334;SDS011;56477;52.742;15.242;2023-09-08T20:21:38;9.15;;;5.28;;
69334;SDS011;56477;52.742;15.242;2023-09-08T20:24:04;9.90;;;5.45;;
69334;SDS011;56477;52.742;15.242;2023-09-08T20:26:31;12.95;;;5.90;;
69334;SDS011;56477;52.742;15.242;2023-09-08T20:28:58;10.83;;;6.33;;
69334;SDS011;56477;52.742;15.242;2023-09-08T20:31:24;11.00;;;5.57;;
69334;SDS011;56477;52.742;15.242;2023-09-08T20:33:50;10.75;;;6.05;;
69334;SDS011;56477;52.742;15.242;2023-09-08T20:36:16;9.53;;;5.70;;
69334;SDS011;56477;52.742;15.242;2023-09-08T20:38:42;10.00;;;5.80;;
69334;SDS011;56477;52.742;15.242;2023-09-08T20:41:08;11.52;;;6.50;;
69334;SDS011;56477;52.742;15.242;2023-09-08T20:43:39;13.98;;;6.07;;
69334;SDS011;56477;52.742;15.242;2023-09-08T20:46:05;11.77;;;5.90;;
69334;SDS011;56477;52.742;15.242;2023-09-08T20:48:32;8.60;;;5.60;;
69334;SDS011;56477;52.742;15.242;2023-09-08T20:51:09;13.65;;;6.22;;
69334;SDS011;56477;52.742;15.242;2023-09-08T20:53:37;9.18;;;5.85;;
69334;SDS011;56477;52.742;15.242;2023-09-08T20:56:04;8.02;;;5.45;;
69334;SDS011;56477;52.742;15.242;2023-09-08T20:58:35;14.90;;;6.18;;
69334;SDS011;56477;52.742;15.242;2023-09-08T21:01:02;11.60;;;6.33;;
69334;SDS011;56477;52.742;15.242;2023-09-08T21:03:29;11.52;;;5.88;;
69334;SDS011;56477;52.742;15.242;2023-09-08T21:05:55;10.27;;;6.20;;
69334;SDS011;56477;52.742;15.242;2023-09-08T21:08:21;11.98;;;6.03;;
69334;SDS011;56477;52.742;15.242;2023-09-08T21:10:47;10.07;;;6.50;;
69334;SDS011;56477;52.742;15.242;2023-09-08T21:13:13;12.73;;;6.10;;
69334;SDS011;56477;52.742;15.242;2023-09-08T21:15:39;12.32;;;7.00;;
69334;SDS011;56477;52.742;15.242;2023-09-08T21:18:06;12.05;;;6.28;;
69334;SDS011;56477;52.742;15.242;2023-09-08T21:20:33;11.93;;;5.55;;
69334;SDS011;56477;52.742;15.242;2023-09-08T21:22:59;11.70;;;5.95;;
69334;SDS011;56477;52.742;15.242;2023-09-08T21:25:32;11.10;;;5.77;;
69334;SDS011;56477;52.742;15.242;2023-09-08T21:27:59;11.13;;;6.55;;
69334;SDS011;56477;52.742;15.242;2023-09-08T21:30:25;13.98;;;6.25;;
69334;SDS011;56477;52.742;15.242;2023-09-08T21:32:51;11.40;;;6.10;;
69334;SDS011;56477;52.742;15.242;2023-09-08T21:35:17;8.90;;;6.47;;
69334;SDS011;56477;52.742;15.242;2023-09-08T21:37:43;12.25;;;6.47;;
69334;SDS011;56477;52.742;15.242;2023-09-08T21:40:10;11.23;;;6.20;;
69334;SDS011;56477;52.742;15.242;2023-09-08T21:42:36;9.30;;;5.90;;
69334;SDS011;56477;52.742;15.242;2023-09-08T21:45:03;10.38;;;6.60;;
69334;SDS011;56477;52.742;15.242;2023-09-08T21:47:30;13.53;;;6.90;;
69334;SDS011;56477;52.742;15.242;2023-09-08T21:49:56;9.80;;;6.88;;
69334;SDS011;56477;52.742;15.242;2023-09-08T21:52:23;10.13;;;7.10;;
69334;SDS011;56477;52.742;15.242;2023-09-08T21:54:49;11.48;;;6.32;;
69334;SDS011;56477;52.742;15.242;2023-09-08T21:57:15;9.00;;;6.13;;
69334;SDS011;56477;52.742;15.242;2023-09-08T21:59:41;11.77;;;6.93;;
69334;SDS011;56477;52.742;15.242;2023-09-08T22:02:07;10.02;;;6.30;;
69334;SDS011;56477;52.742;15.242;2023-09-08T22:04:33;10.80;;;6.50;;
69334;SDS011;56477;52.742;15.242;2023-09-08T22:07:00;10.45;;;6.63;;
69334;SDS011;56477;52.742;15.242;2023-09-08T22:09:26;11.13;;;6.80;;
69334;SDS011;56477;52.742;15.242;2023-09-08T22:11:52;11.25;;;6.30;;
69334;SDS011;56477;52.742;15.242;2023-09-08T22:14:18;11.77;;;6.60;;
69334;SDS011;56477;52.742;15.242;2023-09-08T22:16:44;10.30;;;7.13;;
69334;SDS011;56477;52.742;15.242;2023-09-08T22:19:10;12.40;;;6.60;;
69334;SDS011;56477;52.742;15.242;2023-09-08T22:21:37;9.52;;;6.47;;
69334;SDS011;56477;52.742;15.242;2023-09-08T22:24:03;13.43;;;6.75;;
69334;SDS011;56477;52.742;15.242;2023-09-08T22:26:30;11.38;;;6.43;;
69334;SDS011;56477;52.742;15.242;2023-09-08T22:28:56;10.82;;;6.18;;
69334;SDS011;56477;52.742;15.242;2023-09-08T22:31:22;10.40;;;6.60;;
69334;SDS011;56477;52.742;15.242;2023-09-08T22:33:48;11.65;;;6.18;;
69334;SDS011;56477;52.742;15.242;2023-09-08T22:36:14;11.88;;;6.68;;
69334;SDS011;56477;52.742;15.242;2023-09-08T22:38:40;9.20;;;6.45;;
69334;SDS011;56477;52.742;15.242;2023-09-08T22:41:06;12.05;;;6.88;;
69334;SDS011;56477;52.742;15.242;2023-09-08T22:43:32;10.60;;;6.87;;
69334;SDS011;56477;52.742;15.242;2023-09-08T22:45:58;10.35;;;7.47;;
69334;SDS011;56477;52.742;15.242;2023-09-08T22:48:24;12.02;;;7.05;;
69334;SDS011;56477;52.742;15.242;2023-09-08T22:50:50;11.10;;;6.77;;
69334;SDS011;56477;52.742;15.242;2023-09-08T22:53:16;11.80;;;7.47;;
69334;SDS011;56477;52.742;15.242;2023-09-08T22:55:43;16.48;;;7.47;;
69334;SDS011;56477;52.742;15.242;2023-09-08T22:58:09;14.50;;;7.30;;
69334;SDS011;56477;52.742;15.242;2023-09-08T23:00:35;17.20;;;8.23;;
69334;SDS011;56477;52.742;15.242;2023-09-08T23:03:01;13.60;;;7.88;;
69334;SDS011;56477;52.742;15.242;2023-09-08T23:05:28;12.25;;;7.45;;
69334;SDS011;56477;52.742;15.242;2023-09-08T23:07:54;10.80;;;7.23;;
69334;SDS011;56477;52.742;15.242;2023-09-08T23:10:20;12.85;;;7.60;;
69334;SDS011;56477;52.742;15.242;2023-09-08T23:12:46;11.73;;;7.63;;
69334;SDS011;56477;52.742;15.242;2023-09-08T23:15:12;12.23;;;7.60;;
69334;SDS011;56477;52.742;15.242;2023-09-08T23:17:38;15.82;;;8.70;;
69334;SDS011;56477;52.742;15.242;2023-09-08T23:20:04;13.27;;;7.97;;
69334;SDS011;56477;52.742;15.242;2023-09-08T23:22:35;13.38;;;8.82;;
69334;SDS011;56477;52.742;15.242;2023-09-08T23:25:01;14.70;;;8.20;;
69334;SDS011;56477;52.742;15.242;2023-09-08T23:27:29;14.70;;;8.50;;
69334;SDS011;56477;52.742;15.242;2023-09-08T23:29:56;16.00;;;8.35;;
69334;SDS011;56477;52.742;15.242;2023-09-08T23:32:21;13.38;;;8.70;;
69334;SDS011;56477;52.742;15.242;2023-09-08T23:34:48;14.87;;;9.03;;
69334;SDS011;56477;52.742;15.242;2023-09-08T23:37:14;13.93;;;8.80;;
69334;SDS011;56477;52.742;15.242;2023-09-08T23:39:40;13.45;;;8.77;;
69334;SDS011;56477;52.742;15.242;2023-09-08T23:42:06;18.00;;;8.43;;
69334;SDS011;56477;52.742;15.242;2023-09-08T23:44:33;15.77;;;9.15;;
69334;SDS011;56477;52.742;15.242;2023-09-08T23:46:58;16.87;;;8.33;;
69334;SDS011;56477;52.742;15.242;2023-09-08T23:49:25;17.80;;;8.52;;
69334;SDS011;56477;52.742;15.242;2023-09-08T23:51:51;16.45;;;8.88;;
69334;SDS011;56477;52.742;15.242;2023-09-08T23:54:17;13.60;;;8.23;;
69334;SDS011;56477;52.742;15.242;2023-09-08T23:56:43;12.37;;;8.03;;
69334;SDS011;56477;52.742;15.242;2023-09-08T23:59:09;14.48;;;8.57;;
